createdAt,value
2023-04-18T00:01:19.628Z,20.90
2023-04-18T00:16:20.118Z,22.30
2023-04-18T00:31:20.428Z,31.10
2023-04-18T00:46:20.377Z,25.70
2023-04-18T01:01:20.821Z,25.00
2023-04-18T01:16:20.603Z,24.40
2023-04-18T01:31:20.808Z,23.10
2023-04-18T01:46:21.335Z,23.10
2023-04-18T02:01:21.949Z,25.90
2023-04-18T02:16:22.438Z,24.20
2023-04-18T02:31:22.512Z,24.00
2023-04-18T02:46:22.757Z,26.30
2023-04-18T03:01:23.493Z,28.40
2023-04-18T03:16:23.368Z,29.50
2023-04-18T03:31:23.912Z,24.10
2023-04-18T03:46:23.568Z,28.60
2023-04-18T04:01:24.060Z,29.60
2023-04-18T04:16:24.191Z,70.10
2023-04-18T04:31:24.491Z,1032.60
2023-04-18T04:46:25.355Z,642.80
2023-04-18T05:01:25.675Z,515.20
2023-04-18T05:16:26.685Z,860.40
2023-04-18T05:31:26.481Z,269.70
2023-04-18T05:46:26.429Z,374.10
2023-04-18T06:01:26.984Z,706.90
2023-04-18T06:16:27.031Z,234.20
2023-04-18T06:31:27.222Z,197.10
2023-04-18T06:46:27.886Z,292.60
2023-04-18T07:01:29.051Z,543.90
2023-04-18T07:16:30.269Z,261.10
2023-04-18T07:31:31.455Z,9.20
2023-04-18T07:46:32.709Z,31.10
2023-04-18T08:01:33.842Z,11.30
2023-04-18T08:16:34.354Z,12.60
2023-04-18T08:31:35.473Z,53.70
2023-04-18T08:46:37.096Z,45.30
2023-04-18T09:01:37.434Z,130.30
2023-04-18T09:16:37.964Z,118.70
2023-04-18T09:31:38.295Z,120.50
2023-04-18T09:46:38.474Z,40.00
2023-04-18T10:01:39.359Z,13.90
2023-04-18T10:16:40.440Z,8.90
2023-04-18T10:31:41.352Z,8.60
2023-04-18T10:46:41.239Z,7.60
2023-04-18T11:01:42.332Z,8.30
2023-04-18T11:16:42.277Z,21.30
2023-04-18T11:31:42.478Z,41.90
2023-04-18T11:46:43.059Z,28.60
2023-04-18T12:01:44.282Z,38.00
2023-04-18T12:16:45.459Z,50.60
2023-04-18T12:31:46.624Z,49.90
2023-04-18T12:46:47.344Z,47.40
2023-04-18T13:01:47.705Z,51.00
2023-04-18T13:16:47.856Z,66.80
2023-04-18T13:31:47.926Z,80.60
2023-04-18T13:46:48.501Z,45.00
2023-04-18T14:01:49.762Z,44.20
2023-04-18T14:16:50.404Z,51.20
2023-04-18T14:31:51.035Z,46.10
2023-04-18T14:46:51.803Z,56.50
2023-04-18T15:01:52.007Z,61.50
2023-04-18T15:16:52.206Z,72.00
2023-04-18T15:31:52.229Z,76.70
2023-04-18T15:46:52.852Z,84.20
2023-04-18T16:01:53.672Z,44.40
2023-04-18T16:16:54.041Z,41.30
2023-04-18T16:31:55.017Z,36.60
2023-04-18T16:47:12.579Z,90.60
2023-04-18T17:02:13.666Z,41.80
2023-04-18T17:17:14.855Z,44.80
2023-04-18T17:32:16.421Z,37.20
2023-04-18T17:47:16.934Z,32.10
2023-04-18T18:02:17.625Z,5.00
2023-04-18T18:17:19.019Z,5.60
2023-04-18T18:32:20.088Z,7.40
2023-04-18T18:47:20.608Z,5.10
2023-04-18T19:02:21.366Z,6.40
2023-04-18T19:17:21.880Z,6.80
2023-04-18T19:32:22.580Z,6.00
2023-04-18T19:47:23.259Z,6.30
2023-04-18T20:02:23.526Z,6.00
2023-04-18T20:17:24.261Z,7.30
2023-04-18T20:32:25.469Z,7.90
2023-04-18T20:47:26.186Z,8.50
2023-04-18T21:02:26.737Z,9.30
2023-04-18T21:17:27.247Z,9.70
2023-04-18T21:32:29.072Z,10.00
2023-04-18T21:47:29.203Z,7.30
2023-04-18T22:02:29.892Z,5.10
2023-04-18T22:17:30.500Z,5.50
2023-04-18T22:32:31.241Z,5.70
2023-04-18T22:47:31.909Z,7.70
2023-04-18T23:02:32.791Z,5.50
2023-04-18T23:17:33.035Z,5.30
2023-04-18T23:32:34.033Z,4.20
2023-04-18T23:47:35.151Z,8.70
